Scf Vision — WDJ3219 — position and weather

sailwx.info

Track history (hours):
 
Tides and Currents Weather Stations Pressure Air Temp Water Temp Dewpoint Dewpoint Depression Visibility Wind Speed Wind Dir Waves Ship Positions

Scf Vision

Owner: SCF Waxler Marine LLC, St Rose, LA. More information available from US FCC via Universal Licensing System and Coast Guard Vessel Documentation Center.

Last reported at 2017-Nov-17 10:08 UTC. Time now 2017-Nov-24 00:23 UTC.
Position N 30°12' W 091°06'.

Length 48 m.

Type: Towing. MMSI: 367765930.

Date/timePositionNaut miles runAvg speedWind from/ knotsBaromVisibWave heightAir tempDewpointWater temp
2017-Nov-17 10:08N 30°12' W 091°06'2 6.8
2017-Nov-17 09:52N 30°11' W 091°08'107 3.7
2017-Nov-16 04:37N 31°58' W 091°11'2 6.4
2017-Nov-16 04:17N 31°59' W 091°09'2 6.9
2017-Nov-16 03:58N 31°59' W 091°06'3 7.2
2017-Nov-16 03:30N 32°02' W 091°04'3 6.5
2017-Nov-16 03:00N 32°05' W 091°05'3 5.6
2017-Nov-16 02:30N 32°08' W 091°06'3 5.8
2017-Nov-16 02:00N 32°07' W 091°03'3 6.4
2017-Nov-16 01:30N 32°09' W 091°00'4 7.6
2017-Nov-16 01:00N 32°13' W 090°59'4 7.3
2017-Nov-16 00:30N 32°16' W 090°57'3 6.4
2017-Nov-16 00:00N 32°19' W 090°54'2 3.8
2017-Nov-15 23:30N 32°20' W 090°54'4 7.7
2017-Nov-15 23:00N 32°21' W 090°59'3 6.7
2017-Nov-15 22:30N 32°24' W 090°59'4 8.4
2017-Nov-15 22:00N 32°26' W 091°04'4 8.3
2017-Nov-15 21:30N 32°30' W 091°07'4 8.9
2017-Nov-15 21:00N 32°34' W 091°06'  
Track history (hours):
 
Tides and Currents Weather Stations Pressure Air Temp Water Temp Dewpoint Dewpoint Depression Visibility Wind Speed Wind Dir Waves Ship Positions

Scf Vision

Owner: SCF Waxler Marine LLC, St Rose, LA. More information available from US FCC via Universal Licensing System and Coast Guard Vessel Documentation Center.

Last reported at 2017-Nov-17 10:08 UTC. Time now 2017-Nov-24 00:23 UTC.
Position N 30°12' W 091°06'.

Length 48 m.

Type: Towing. MMSI: 367765930.

Date/timePositionNaut miles runAvg speedWind from/ knotsBaromVisibWave heightAir tempDewpointWater temp
2017-Nov-17 10:08N 30°12' W 091°06'2 6.8
2017-Nov-17 09:52N 30°11' W 091°08'107 3.7
2017-Nov-16 04:37N 31°58' W 091°11'2 6.4
2017-Nov-16 04:17N 31°59' W 091°09'2 6.9
2017-Nov-16 03:58N 31°59' W 091°06'3 7.2
2017-Nov-16 03:30N 32°02' W 091°04'3 6.5
2017-Nov-16 03:00N 32°05' W 091°05'3 5.6
2017-Nov-16 02:30N 32°08' W 091°06'3 5.8
2017-Nov-16 02:00N 32°07' W 091°03'3 6.4
2017-Nov-16 01:30N 32°09' W 091°00'4 7.6
2017-Nov-16 01:00N 32°13' W 090°59'4 7.3
2017-Nov-16 00:30N 32°16' W 090°57'3 6.4
2017-Nov-16 00:00N 32°19' W 090°54'2 3.8
2017-Nov-15 23:30N 32°20' W 090°54'4 7.7
2017-Nov-15 23:00N 32°21' W 090°59'3 6.7
2017-Nov-15 22:30N 32°24' W 090°59'4 8.4
2017-Nov-15 22:00N 32°26' W 091°04'4 8.3
2017-Nov-15 21:30N 32°30' W 091°07'4 8.9
2017-Nov-15 21:00N 32°34' W 091°06'  

Dump ship's entire track history